EZY54ED EGKK-EDDL
Flight info
| Callsign | EZY54ED |
|---|---|
| Flight time | 0h 52m |
| Altitude | 33000 |
| Route | MIMFO Y312 DVR UL9 KONAN DCT KOK DCT DENOX DCT SPI Y862 KENUM M170 NVO T857 BIKMU BIKMU1A |
| Aircraft | A320/M-SDE3FGHIRWY/LB1 |
Departure
| Time | 2026-04-17 08:51 |
|---|---|
| Airport | London Gatwick Airport (EGKK) |
Arrival
| Time | 2026-04-17 09:43 |
|---|---|
| Airport | Düsseldorf Airport (EDDL) |
| Time | Latitude | Longitude | Altitude | Speed | Heading |
|---|---|---|---|---|---|
| 2026-04-17 08:29 | 51.15861 | -0.17938 | 204 ft | 0 kts | 78° |
| 2026-04-17 08:29 | 51.15861 | -0.17939 | 204 ft | 0 kts | 78° |
| 2026-04-17 08:38 | 51.15858 | -0.17959 | 214 ft | 2 kts | 78° |
| 2026-04-17 08:38 | 51.15855 | -0.17982 | 208 ft | 2 kts | 78° |
| 2026-04-17 08:38 | 51.15852 | -0.18005 | 206 ft | 2 kts | 78° |
| 2026-04-17 08:39 | 51.15849 | -0.18029 | 216 ft | 2 kts | 78° |
| 2026-04-17 08:39 | 51.15846 | -0.18051 | 216 ft | 2 kts | 95° |
| 2026-04-17 08:39 | 51.15850 | -0.18075 | 216 ft | 2 kts | 135° |
| 2026-04-17 08:39 | 51.15857 | -0.18086 | 210 ft | 0 kts | 166° |
| 2026-04-17 08:43 | 51.15846 | -0.18081 | 216 ft | 7 kts | 166° |
| 2026-04-17 08:43 | 51.15805 | -0.18066 | 213 ft | 7 kts | 166° |
| 2026-04-17 08:44 | 51.15757 | -0.18049 | 204 ft | 8 kts | 167° |
| 2026-04-17 08:44 | 51.15702 | -0.18005 | 212 ft | 9 kts | 122° |
| 2026-04-17 08:44 | 51.15705 | -0.17914 | 210 ft | 8 kts | 77° |
| 2026-04-17 08:44 | 51.15719 | -0.17814 | 207 ft | 10 kts | 77° |
| 2026-04-17 08:45 | 51.15734 | -0.17707 | 204 ft | 9 kts | 78° |
| 2026-04-17 08:45 | 51.15748 | -0.17603 | 204 ft | 10 kts | 78° |
| 2026-04-17 08:45 | 51.15737 | -0.17510 | 214 ft | 9 kts | 140° |
| 2026-04-17 08:45 | 51.15656 | -0.17476 | 204 ft | 14 kts | 167° |
| 2026-04-17 08:46 | 51.15556 | -0.17442 | 208 ft | 16 kts | 168° |
| 2026-04-17 08:46 | 51.15442 | -0.17401 | 211 ft | 18 kts | 167° |
| 2026-04-17 08:46 | 51.15330 | -0.17362 | 204 ft | 9 kts | 168° |
| 2026-04-17 08:46 | 51.15268 | -0.17336 | 208 ft | 10 kts | 155° |
| 2026-04-17 08:47 | 51.15243 | -0.17252 | 204 ft | 9 kts | 79° |
| 2026-04-17 08:47 | 51.15255 | -0.17164 | 204 ft | 8 kts | 77° |
| 2026-04-17 08:47 | 51.15266 | -0.17083 | 210 ft | 8 kts | 77° |
| 2026-04-17 08:47 | 51.15278 | -0.17000 | 207 ft | 7 kts | 78° |
| 2026-04-17 08:48 | 51.15288 | -0.16927 | 204 ft | 6 kts | 78° |
| 2026-04-17 08:48 | 51.15292 | -0.16863 | 204 ft | 5 kts | 99° |
| 2026-04-17 08:48 | 51.15277 | -0.16831 | 205 ft | 0 kts | 147° |
| 2026-04-17 08:49 | 51.15276 | -0.16831 | 214 ft | 1 kts | 148° |
| 2026-04-17 08:49 | 51.15233 | -0.16810 | 213 ft | 8 kts | 167° |
| 2026-04-17 08:49 | 51.15169 | -0.16787 | 206 ft | 11 kts | 169° |
| 2026-04-17 08:50 | 51.15115 | -0.16858 | 214 ft | 4 kts | 258° |
| 2026-04-17 08:50 | 51.15111 | -0.16885 | 213 ft | 11 kts | 257° |
| 2026-04-17 08:50 | 51.15035 | -0.17421 | 208 ft | 85 kts | 258° |
| 2026-04-17 08:50 | 51.14865 | -0.18667 | 207 ft | 143 kts | 257° |
| 2026-04-17 08:51 | 51.14636 | -0.20323 | 655 ft | 153 kts | 255° |
| 2026-04-17 08:51 | 51.14420 | -0.21953 | 1404 ft | 153 kts | 255° |
| 2026-04-17 08:51 | 51.14182 | -0.23723 | 1922 ft | 172 kts | 256° |
| 2026-04-17 08:51 | 51.13899 | -0.25705 | 2305 ft | 196 kts | 255° |
| 2026-04-17 08:52 | 51.13578 | -0.27947 | 2763 ft | 220 kts | 255° |
| 2026-04-17 08:52 | 51.13230 | -0.30433 | 3361 ft | 238 kts | 256° |
| 2026-04-17 08:52 | 51.12858 | -0.33046 | 4271 ft | 244 kts | 255° |
| 2026-04-17 08:52 | 51.12484 | -0.35664 | 5222 ft | 248 kts | 255° |
| 2026-04-17 08:53 | 51.12087 | -0.38391 | 6145 ft | 252 kts | 256° |
| 2026-04-17 08:53 | 51.11769 | -0.41162 | 7000 ft | 259 kts | 268° |
| 2026-04-17 08:53 | 51.12140 | -0.43983 | 7836 ft | 267 kts | 293° |
| 2026-04-17 08:53 | 51.13325 | -0.46306 | 8689 ft | 279 kts | 321° |
| 2026-04-17 08:54 | 51.15150 | -0.47480 | 9538 ft | 293 kts | 350° |
| 2026-04-17 08:54 | 51.17210 | -0.47097 | 10047 ft | 307 kts | 20° |
| 2026-04-17 08:54 | 51.18940 | -0.45115 | 10155 ft | 312 kts | 51° |
| 2026-04-17 08:54 | 51.19853 | -0.42002 | 10277 ft | 318 kts | 77° |
| 2026-04-17 08:55 | 51.20281 | -0.38413 | 10552 ft | 342 kts | 84° |
| 2026-04-17 08:55 | 51.20566 | -0.34527 | 10782 ft | 365 kts | 86° |
| 2026-04-17 08:55 | 51.20821 | -0.30438 | 11064 ft | 384 kts | 86° |
| 2026-04-17 08:55 | 51.21115 | -0.26158 | 11674 ft | 391 kts | 85° |
| 2026-04-17 08:56 | 51.21471 | -0.21774 | 12365 ft | 396 kts | 84° |
| 2026-04-17 08:56 | 51.21876 | -0.17401 | 13067 ft | 401 kts | 83° |
| 2026-04-17 08:56 | 51.22318 | -0.12980 | 13750 ft | 406 kts | 83° |
| 2026-04-17 08:56 | 51.22778 | -0.08516 | 14366 ft | 410 kts | 83° |
| 2026-04-17 08:57 | 51.23240 | -0.04004 | 14974 ft | 414 kts | 83° |
| 2026-04-17 08:57 | 51.23698 | 0.00554 | 15450 ft | 418 kts | 83° |
| 2026-04-17 08:57 | 51.24149 | 0.05166 | 16031 ft | 422 kts | 83° |
| 2026-04-17 08:57 | 51.24594 | 0.09806 | 16601 ft | 426 kts | 83° |
| 2026-04-17 08:58 | 51.25042 | 0.14502 | 17167 ft | 429 kts | 83° |
| 2026-04-17 08:58 | 51.25352 | 0.19243 | 17728 ft | 432 kts | 90° |
| 2026-04-17 08:58 | 51.25200 | 0.24034 | 18267 ft | 433 kts | 99° |
| 2026-04-17 08:58 | 51.24823 | 0.28831 | 18723 ft | 437 kts | 99° |
| 2026-04-17 08:59 | 51.24451 | 0.33665 | 19181 ft | 441 kts | 99° |
| 2026-04-17 08:59 | 51.24082 | 0.38541 | 19666 ft | 444 kts | 99° |
| 2026-04-17 08:59 | 51.23711 | 0.43455 | 20148 ft | 448 kts | 99° |
| 2026-04-17 08:59 | 51.23341 | 0.48345 | 20589 ft | 451 kts | 99° |
| 2026-04-17 09:00 | 51.22956 | 0.53395 | 21054 ft | 454 kts | 99° |
| 2026-04-17 09:00 | 51.22569 | 0.58410 | 21526 ft | 457 kts | 99° |
| 2026-04-17 09:00 | 51.22176 | 0.63456 | 21997 ft | 460 kts | 99° |
| 2026-04-17 09:00 | 51.21784 | 0.68474 | 22445 ft | 463 kts | 99° |
| 2026-04-17 09:01 | 51.21381 | 0.73583 | 22897 ft | 466 kts | 100° |
| 2026-04-17 09:01 | 51.20971 | 0.78734 | 23341 ft | 469 kts | 100° |
| 2026-04-17 09:01 | 51.20558 | 0.83913 | 23748 ft | 472 kts | 100° |
| 2026-04-17 09:01 | 51.20139 | 0.89131 | 24117 ft | 475 kts | 100° |
| 2026-04-17 09:02 | 51.19715 | 0.94371 | 24547 ft | 478 kts | 100° |
| 2026-04-17 09:02 | 51.19427 | 0.97917 | 24755 ft | 479 kts | 100° |
| 2026-04-17 09:03 | 51.17529 | 1.20887 | 26074 ft | 488 kts | 100° |
| 2026-04-17 09:04 | 51.15794 | 1.42646 | 27151 ft | 497 kts | 97° |
| 2026-04-17 09:04 | 51.15522 | 1.48142 | 27404 ft | 499 kts | 96° |
| 2026-04-17 09:04 | 51.15372 | 1.51802 | 27565 ft | 500 kts | 95° |
| 2026-04-17 09:06 | 51.14087 | 1.81103 | 28974 ft | 502 kts | 97° |
| 2026-04-17 09:06 | 51.13203 | 1.97608 | 29913 ft | 499 kts | 96° |
| 2026-04-17 09:07 | 51.12914 | 2.03029 | 30245 ft | 498 kts | 96° |
| 2026-04-17 09:07 | 51.12624 | 2.08532 | 30529 ft | 498 kts | 96° |
| 2026-04-17 09:07 | 51.12334 | 2.14013 | 30784 ft | 498 kts | 96° |
| 2026-04-17 09:08 | 51.11024 | 2.37981 | 31903 ft | 497 kts | 96° |
| 2026-04-17 09:09 | 51.09952 | 2.56818 | 32832 ft | 496 kts | 96° |
| 2026-04-17 09:09 | 51.09562 | 2.63454 | 33137 ft | 496 kts | 97° |
| 2026-04-17 09:10 | 51.08126 | 2.74184 | 33219 ft | 497 kts | 105° |
| 2026-04-17 09:10 | 51.06764 | 2.83139 | 33220 ft | 497 kts | 105° |
| 2026-04-17 09:11 | 51.05150 | 2.93747 | 33220 ft | 496 kts | 104° |
| 2026-04-17 09:11 | 51.03513 | 3.04471 | 33220 ft | 496 kts | 105° |
| 2026-04-17 09:12 | 51.01871 | 3.15118 | 33217 ft | 496 kts | 105° |
| 2026-04-17 09:12 | 51.00221 | 3.25756 | 33215 ft | 496 kts | 105° |
| 2026-04-17 09:13 | 50.98561 | 3.36386 | 33211 ft | 496 kts | 105° |
| 2026-04-17 09:13 | 50.96892 | 3.46996 | 33218 ft | 496 kts | 105° |
| 2026-04-17 09:14 | 50.96337 | 3.50508 | 33219 ft | 496 kts | 105° |
| 2026-04-17 09:15 | 50.91596 | 3.80262 | 33223 ft | 494 kts | 105° |
| 2026-04-17 09:15 | 50.89906 | 3.90745 | 33227 ft | 494 kts | 105° |
| 2026-04-17 09:16 | 50.88188 | 4.01294 | 33234 ft | 494 kts | 105° |
| 2026-04-17 09:16 | 50.86193 | 4.11689 | 33233 ft | 493 kts | 110° |
| 2026-04-17 09:17 | 50.83839 | 4.21882 | 33236 ft | 493 kts | 112° |
| 2026-04-17 09:17 | 50.81822 | 4.30398 | 33237 ft | 493 kts | 111° |
| 2026-04-17 09:18 | 50.79504 | 4.40606 | 33238 ft | 493 kts | 110° |
| 2026-04-17 09:18 | 50.77242 | 4.50822 | 33235 ft | 492 kts | 110° |
| 2026-04-17 09:19 | 50.75086 | 4.60450 | 33240 ft | 492 kts | 110° |
| 2026-04-17 09:19 | 50.74462 | 4.63217 | 33240 ft | 492 kts | 110° |
| 2026-04-17 09:20 | 50.68246 | 4.90465 | 33243 ft | 490 kts | 110° |
| 2026-04-17 09:21 | 50.66315 | 4.98860 | 33244 ft | 490 kts | 110° |
| 2026-04-17 09:22 | 50.61739 | 5.18652 | 33237 ft | 489 kts | 110° |
| 2026-04-17 09:23 | 50.56608 | 5.40598 | 33234 ft | 489 kts | 110° |
| 2026-04-17 09:23 | 50.54635 | 5.48998 | 33233 ft | 489 kts | 109° |
| 2026-04-17 09:25 | 50.55724 | 5.75277 | 31455 ft | 469 kts | 59° |
| 2026-04-17 09:25 | 50.57868 | 5.81437 | 30089 ft | 473 kts | 58° |
| 2026-04-17 09:25 | 50.59467 | 5.85994 | 28883 ft | 477 kts | 59° |
| 2026-04-17 09:25 | 50.61058 | 5.90579 | 27751 ft | 479 kts | 59° |
| 2026-04-17 09:26 | 50.62641 | 5.95206 | 26506 ft | 482 kts | 60° |
| 2026-04-17 09:26 | 50.64223 | 5.99897 | 25312 ft | 488 kts | 60° |
| 2026-04-17 09:26 | 50.65812 | 6.04658 | 24704 ft | 493 kts | 61° |
| 2026-04-17 09:26 | 50.67405 | 6.09456 | 24431 ft | 495 kts | 61° |
| 2026-04-17 09:27 | 50.69002 | 6.14266 | 24236 ft | 496 kts | 61° |
| 2026-04-17 09:27 | 50.70606 | 6.19079 | 24233 ft | 495 kts | 61° |
| 2026-04-17 09:27 | 50.71672 | 6.22264 | 24243 ft | 496 kts | 61° |
| 2026-04-17 09:27 | 50.73531 | 6.28805 | 23232 ft | 477 kts | 66° |
| 2026-04-17 09:28 | 50.74779 | 6.33636 | 21299 ft | 475 kts | 68° |
| 2026-04-17 09:28 | 50.75989 | 6.38450 | 19740 ft | 467 kts | 68° |
| 2026-04-17 09:28 | 50.76770 | 6.41591 | 18816 ft | 461 kts | 68° |
| 2026-04-17 09:28 | 50.78312 | 6.47830 | 16835 ft | 449 kts | 68° |
| 2026-04-17 09:29 | 50.79431 | 6.52316 | 15462 ft | 440 kts | 66° |
| 2026-04-17 09:29 | 50.79864 | 6.53791 | 15000 ft | 437 kts | 62° |
| 2026-04-17 09:29 | 50.82934 | 6.59967 | 13542 ft | 427 kts | 40° |
| 2026-04-17 09:29 | 50.85315 | 6.62687 | 12868 ft | 419 kts | 28° |
| 2026-04-17 09:30 | 50.87954 | 6.64542 | 12176 ft | 412 kts | 16° |
| 2026-04-17 09:30 | 50.89817 | 6.65257 | 11727 ft | 406 kts | 7° |
| 2026-04-17 09:30 | 50.93434 | 6.66008 | 11430 ft | 384 kts | 6° |
| 2026-04-17 09:30 | 50.96016 | 6.66554 | 11302 ft | 366 kts | 6° |
| 2026-04-17 09:31 | 50.98550 | 6.67104 | 11145 ft | 366 kts | 6° |
| 2026-04-17 09:31 | 51.00204 | 6.67467 | 10989 ft | 358 kts | 6° |
| 2026-04-17 09:31 | 51.03434 | 6.67848 | 10658 ft | 340 kts | 356° |
| 2026-04-17 09:31 | 51.05760 | 6.67659 | 10418 ft | 330 kts | 355° |
| 2026-04-17 09:32 | 51.07258 | 6.67534 | 10298 ft | 322 kts | 355° |
| 2026-04-17 09:32 | 51.09442 | 6.67398 | 10240 ft | 308 kts | 359° |
| 2026-04-17 09:32 | 51.12237 | 6.68010 | 10243 ft | 299 kts | 13° |
| 2026-04-17 09:32 | 51.14238 | 6.68923 | 10252 ft | 298 kts | 14° |
| 2026-04-17 09:33 | 51.16230 | 6.69833 | 10249 ft | 298 kts | 14° |
| 2026-04-17 09:33 | 51.17551 | 6.70435 | 10243 ft | 299 kts | 14° |
| 2026-04-17 09:33 | 51.19550 | 6.71344 | 10097 ft | 298 kts | 14° |
| 2026-04-17 09:33 | 51.21542 | 6.72255 | 9977 ft | 297 kts | 14° |
| 2026-04-17 09:34 | 51.23541 | 6.73171 | 9495 ft | 302 kts | 14° |
| 2026-04-17 09:34 | 51.25547 | 6.74090 | 9094 ft | 298 kts | 14° |
| 2026-04-17 09:34 | 51.27530 | 6.75038 | 8419 ft | 295 kts | 20° |
| 2026-04-17 09:34 | 51.29300 | 6.76496 | 7781 ft | 293 kts | 35° |
| 2026-04-17 09:35 | 51.31507 | 6.79099 | 7070 ft | 293 kts | 37° |
| 2026-04-17 09:35 | 51.32059 | 6.79750 | 6962 ft | 291 kts | 37° |
| 2026-04-17 09:35 | 51.34221 | 6.82299 | 6262 ft | 287 kts | 37° |
| 2026-04-17 09:35 | 51.35813 | 6.84178 | 5659 ft | 282 kts | 37° |
| 2026-04-17 09:36 | 51.37377 | 6.86025 | 5047 ft | 276 kts | 37° |
| 2026-04-17 09:36 | 51.38913 | 6.87840 | 4384 ft | 272 kts | 37° |
| 2026-04-17 09:36 | 51.40400 | 6.89596 | 4180 ft | 259 kts | 37° |
| 2026-04-17 09:36 | 51.41813 | 6.91265 | 4037 ft | 247 kts | 37° |
| 2026-04-17 09:37 | 51.43157 | 6.92854 | 3945 ft | 234 kts | 37° |
| 2026-04-17 09:37 | 51.44403 | 6.94441 | 3861 ft | 222 kts | 49° |
| 2026-04-17 09:37 | 51.45111 | 6.96519 | 3813 ft | 207 kts | 79° |
| 2026-04-17 09:37 | 51.45112 | 6.98742 | 3756 ft | 197 kts | 107° |
| 2026-04-17 09:38 | 51.44499 | 7.00658 | 3703 ft | 193 kts | 134° |
| 2026-04-17 09:38 | 51.43435 | 7.01925 | 3660 ft | 191 kts | 158° |
| 2026-04-17 09:38 | 51.42140 | 7.02320 | 3611 ft | 192 kts | 184° |
| 2026-04-17 09:38 | 51.40868 | 7.01765 | 3565 ft | 190 kts | 210° |
| 2026-04-17 09:39 | 51.39879 | 7.00370 | 3489 ft | 191 kts | 231° |
| 2026-04-17 09:39 | 51.39077 | 6.98668 | 3277 ft | 192 kts | 233° |
| 2026-04-17 09:39 | 51.38549 | 6.97538 | 3119 ft | 192 kts | 233° |
| 2026-04-17 09:39 | 51.37470 | 6.95243 | 2775 ft | 192 kts | 233° |
| 2026-04-17 09:40 | 51.36664 | 6.93537 | 2514 ft | 193 kts | 233° |
| 2026-04-17 09:40 | 51.35864 | 6.91848 | 2279 ft | 186 kts | 233° |
| 2026-04-17 09:40 | 51.35107 | 6.90248 | 2011 ft | 175 kts | 233° |
| 2026-04-17 09:40 | 51.34409 | 6.88776 | 1778 ft | 161 kts | 233° |
| 2026-04-17 09:41 | 51.33757 | 6.87400 | 1562 ft | 151 kts | 233° |
| 2026-04-17 09:41 | 51.33131 | 6.86088 | 1362 ft | 147 kts | 233° |
| 2026-04-17 09:41 | 51.32521 | 6.84799 | 1196 ft | 144 kts | 233° |
| 2026-04-17 09:41 | 51.31915 | 6.83522 | 1002 ft | 144 kts | 233° |
| 2026-04-17 09:42 | 51.31508 | 6.82663 | 882 ft | 143 kts | 233° |
| 2026-04-17 09:42 | 51.30914 | 6.81417 | 684 ft | 142 kts | 233° |
| 2026-04-17 09:42 | 51.30119 | 6.79742 | 433 ft | 141 kts | 233° |
| 2026-04-17 09:42 | 51.29528 | 6.78498 | 233 ft | 141 kts | 233° |
| 2026-04-17 09:43 | 51.28966 | 6.77303 | 128 ft | 118 kts | 233° |
| 2026-04-17 09:43 | 51.28572 | 6.76482 | 127 ft | 68 kts | 233° |
| 2026-04-17 09:43 | 51.28426 | 6.76174 | 127 ft | 35 kts | 232° |
| 2026-04-17 09:43 | 51.28243 | 6.76049 | 128 ft | 16 kts | 165° |
| 2026-04-17 09:44 | 51.28202 | 6.76172 | 126 ft | 14 kts | 60° |
| 2026-04-17 09:44 | 51.28242 | 6.76258 | 128 ft | 6 kts | 53° |
| 2026-04-17 09:44 | 51.28261 | 6.76297 | 126 ft | 7 kts | 53° |
| 2026-04-17 09:45 | 51.28306 | 6.76497 | 125 ft | 8 kts | 151° |
| 2026-04-17 09:45 | 51.28265 | 6.76485 | 127 ft | 5 kts | 211° |
| 2026-04-17 09:45 | 51.28227 | 6.76439 | 124 ft | 5 kts | 201° |
| 2026-04-17 09:46 | 51.28203 | 6.76448 | 125 ft | 2 kts | 131° |
| 2026-04-17 09:46 | 51.28200 | 6.76493 | 124 ft | 5 kts | 83° |
| 2026-04-17 09:46 | 51.28194 | 6.76532 | 126 ft | 4 kts | 101° |
| 2026-04-17 09:46 | 51.28192 | 6.76560 | 125 ft | 1 kts | 95° |
| 2026-04-17 09:47 | 51.28192 | 6.76565 | 125 ft | 0 kts | 95° |